Time;durP1;ratioP1;P1;durP2;ratioP2;P2;SDS_P1;SDS_P2;PMS_P1;PMS_P2;Temp;Humidity;BMP_temperature;BMP_pressure;BME280_temperature;BME280_humidity;BME280_pressure;Samples;Min_cycle;Max_cycle;Signal;HPM_P1;HPM_P2
2023/08/13 00:01:05;;;;;;;6.05;4.10;;;;;;;21.29;59.90;100326.66;4476989;32;33676;-74
2023/08/13 00:03:32;;;;;;;6.80;4.30;;;;;;;21.33;59.88;100324.03;4480516;32;34077;-74
2023/08/13 00:06:00;;;;;;;6.00;4.10;;;;;;;21.18;60.12;100327.41;4480694;32;33223;-74
2023/08/13 00:08:28;;;;;;;8.05;4.57;;;;;;;21.10;60.61;100328.22;4480633;32;33984;-74
2023/08/13 00:10:56;;;;;;;6.27;4.40;;;;;;;21.13;60.47;100325.59;4481358;32;34389;-74
2023/08/13 00:13:23;;;;;;;6.53;4.40;;;;;;;21.35;59.74;100321.41;4483254;32;34483;-74
2023/08/13 00:15:51;;;;;;;7.68;4.45;;;;;;;21.35;59.59;100322.28;4480976;32;33849;-74
2023/08/13 00:18:18;;;;;;;5.80;4.20;;;;;;;21.08;60.46;100332.56;4477813;32;33699;-74
2023/08/13 00:20:46;;;;;;;6.78;4.70;;;;;;;21.07;60.61;100330.78;4479256;32;33676;-74
2023/08/13 00:23:14;;;;;;;7.10;4.68;;;;;;;20.99;60.80;100333.34;4481494;32;33471;-74
2023/08/13 00:25:41;;;;;;;8.23;4.68;;;;;;;21.06;60.56;100335.19;4482461;32;34013;-74
2023/08/13 00:28:09;;;;;;;6.57;4.37;;;;;;;20.83;61.24;100336.69;4469528;32;33757;-74
2023/08/13 00:30:36;;;;;;;6.27;4.27;;;;;;;20.68;61.56;100342.66;4483418;32;33288;-74
2023/08/13 00:33:04;;;;;;;6.55;4.40;;;;;;;20.82;61.20;100335.78;4467956;32;32341;-74
2023/08/13 00:35:32;;;;;;;6.10;4.30;;;;;;;21.06;60.25;100339.59;4477703;32;34270;-74
2023/08/13 00:37:59;;;;;;;6.00;4.32;;;;;;;20.98;60.32;100334.22;4458117;32;32144;-74
2023/08/13 00:40:27;;;;;;;5.80;4.35;;;;;;;20.81;60.79;100334.03;4476795;32;33611;-74
2023/08/13 00:42:54;;;;;;;6.55;4.37;;;;;;;21.00;60.23;100325.47;4474942;32;33673;-74
2023/08/13 00:45:22;;;;;;;6.00;4.22;;;;;;;20.97;60.24;100328.06;4474168;32;33794;-74
2023/08/13 00:47:50;;;;;;;6.22;4.43;;;;;;;20.85;60.72;100324.44;4469967;32;34598;-74
2023/08/13 00:50:18;;;;;;;6.70;4.05;;;;;;;20.58;61.64;100326.69;4463499;32;33345;-74
2023/08/13 00:52:46;;;;;;;6.97;4.43;;;;;;;20.80;60.98;100326.97;4464596;32;33497;-74
2023/08/13 00:55:14;;;;;;;6.07;4.43;;;;;;;20.57;61.80;100329.31;4469876;32;33784;-74
2023/08/13 00:57:42;;;;;;;5.97;4.27;;;;;;;20.53;61.88;100333.69;4477461;32;33549;-74
2023/08/13 01:00:10;;;;;;;6.50;4.30;;;;;;;20.27;62.80;100329.81;4476057;32;33881;-74
2023/08/13 01:02:38;;;;;;;6.27;4.20;;;;;;;20.07;63.59;100333.03;4477280;32;34538;-74
2023/08/13 01:05:06;;;;;;;6.35;4.37;;;;;;;20.30;62.86;100335.09;4471128;32;33269;-74
2023/08/13 01:07:41;;;;;;;7.20;4.65;;;;;;;20.25;62.92;100332.41;4472438;32;33612;-74
2023/08/13 01:10:23;;;;;;;6.90;4.50;;;;;;;20.29;62.76;100328.97;4462827;32;32668;-74
2023/08/13 01:13:00;;;;;;;7.00;4.67;;;;;;;20.28;62.76;100327.22;4454965;32;33157;-74
2023/08/13 01:15:37;;;;;;;6.57;4.50;;;;;;;20.20;62.92;100328.81;4461759;32;32277;-74
2023/08/13 01:18:07;;;;;;;6.87;4.20;;;;;;;20.42;61.88;100328.25;4469113;32;33934;-74
2023/08/13 01:20:37;;;;;;;5.43;4.40;;;;;;;20.52;61.67;100316.09;4471548;32;33399;-74
2023/08/13 01:23:05;;;;;;;7.13;4.40;;;;;;;20.70;61.09;100322.50;4483582;32;33350;-74
2023/08/13 01:25:33;;;;;;;7.40;4.57;;;;;;;20.32;62.32;100333.38;4479625;32;33934;-74
2023/08/13 01:28:04;;;;;;;7.22;4.50;;;;;;;20.16;62.94;100335.78;4468317;32;34576;-74
2023/08/13 01:30:45;;;;;;;7.10;4.60;;;;;;;20.00;63.54;100336.44;4483469;32;32718;-74
2023/08/13 01:33:18;;;;;;;6.75;5.05;;;;;;;19.80;64.42;100334.38;4483908;32;32889;-74
2023/08/13 01:35:46;;;;;;;7.12;4.50;;;;;;;19.78;64.57;100329.94;4471492;32;32773;-74
2023/08/13 01:38:14;;;;;;;6.60;4.32;;;;;;;20.08;63.53;100334.78;4482272;32;33849;-73
2023/08/13 01:40:42;;;;;;;7.72;4.60;;;;;;;20.16;62.99;100340.16;4471470;32;34073;-74
2023/08/13 01:43:10;;;;;;;7.55;4.53;;;;;;;19.97;63.57;100342.53;4483352;32;34439;-73
2023/08/13 01:45:37;;;;;;;5.70;4.32;;;;;;;20.22;62.72;100342.88;4481754;32;33575;-74
2023/08/13 01:48:06;;;;;;;7.40;4.40;;;;;;;19.95;63.39;100343.34;4483218;31;33920;-74
2023/08/13 01:50:34;;;;;;;6.95;4.00;;;;;;;20.09;63.00;100347.09;4477144;31;34229;-74
2023/08/13 01:53:02;;;;;;;5.73;4.20;;;;;;;20.27;62.28;100340.34;4479324;32;33766;-74
2023/08/13 01:55:29;;;;;;;6.07;4.10;;;;;;;20.16;62.30;100346.31;4475923;32;33280;-73
2023/08/13 01:57:57;;;;;;;6.45;4.10;;;;;;;19.97;62.92;100346.91;4482378;32;33642;-74
2023/08/13 02:00:25;;;;;;;6.37;4.62;;;;;;;19.98;63.10;100344.28;4483143;32;33761;-74
2023/08/13 02:02:55;;;;;;;6.40;4.30;;;;;;;20.15;62.79;100341.91;4483288;32;33539;-74
2023/08/13 02:05:22;;;;;;;5.73;4.50;;;;;;;20.18;62.46;100347.22;4483264;32;32939;-74
2023/08/13 02:07:50;;;;;;;6.28;4.40;;;;;;;20.28;62.08;100347.34;4482627;32;34610;-74
2023/08/13 02:10:18;;;;;;;6.70;4.70;;;;;;;20.09;62.82;100340.94;4482901;32;34068;-74
2023/08/13 02:12:46;;;;;;;6.80;4.60;;;;;;;19.90;63.33;100340.66;4472424;32;33787;-74
2023/08/13 02:15:14;;;;;;;6.10;4.27;;;;;;;20.20;62.39;100340.25;4481472;32;33556;-74
2023/08/13 02:17:43;;;;;;;6.20;4.80;;;;;;;19.87;63.49;100355.50;4481848;32;33515;-74
2023/08/13 02:20:11;;;;;;;6.40;4.40;;;;;;;19.80;63.84;100352.78;4481291;32;33903;-74
2023/08/13 02:22:39;;;;;;;6.55;4.45;;;;;;;19.66;64.58;100351.63;4482959;32;34293;-74
2023/08/13 02:25:07;;;;;;;5.60;4.25;;;;;;;19.59;64.84;100350.66;4475192;32;33201;-73
2023/08/13 02:27:36;;;;;;;6.07;4.10;;;;;;;19.57;64.89;100347.12;4483151;32;34324;-74
2023/08/13 02:30:04;;;;;;;6.70;3.90;;;;;;;19.47;65.28;100349.53;4482392;32;34622;-73
2023/08/13 02:32:31;;;;;;;6.03;4.25;;;;;;;19.64;64.71;100348.09;4476635;32;33560;-74
2023/08/13 02:35:00;;;;;;;5.70;4.05;;;;;;;19.86;63.74;100351.09;4483101;32;33304;-74
2023/08/13 02:37:27;;;;;;;6.55;4.43;;;;;;;19.76;63.74;100352.69;4462898;32;33660;-74
2023/08/13 02:39:58;;;;;;;6.75;4.20;;;;;;;19.66;63.93;100351.63;4483138;32;33639;-74
2023/08/13 02:42:25;;;;;;;5.80;4.12;;;;;;;19.74;63.54;100354.41;4478999;32;33743;-74
2023/08/13 02:44:52;;;;;;;5.53;4.10;;;;;;;19.58;64.06;100348.00;4480295;32;32787;-74
2023/08/13 02:47:21;;;;;;;6.45;4.07;;;;;;;19.57;64.27;100356.75;4482221;32;33736;-74
2023/08/13 02:49:51;;;;;;;7.90;4.30;;;;;;;19.52;64.57;100358.41;4476763;32;33545;-74
2023/08/13 02:52:18;;;;;;;6.73;4.37;;;;;;;19.60;64.26;100356.78;4482348;32;33904;-74
2023/08/13 02:54:46;;;;;;;5.80;4.47;;;;;;;19.93;62.98;100356.47;4479232;32;33296;-74
2023/08/13 02:57:14;;;;;;;6.12;4.60;;;;;;;19.74;63.43;100360.59;4467799;32;33286;-74
2023/08/13 02:59:41;;;;;;;7.03;4.80;;;;;;;19.38;65.03;100359.03;4479589;32;33787;-74
2023/08/13 03:02:09;;;;;;;6.60;4.82;;;;;;;19.50;64.67;100357.50;4482452;32;34061;-74
2023/08/13 03:04:37;;;;;;;7.07;4.70;;;;;;;19.33;65.22;100342.31;4481800;32;33391;-74
2023/08/13 03:07:04;;;;;;;7.45;4.85;;;;;;;19.28;65.45;100341.38;4482618;32;33379;-74
2023/08/13 03:09:32;;;;;;;7.25;4.87;;;;;;;19.67;63.88;100349.91;4482536;32;33418;-74
2023/08/13 03:11:59;;;;;;;6.93;4.50;;;;;;;19.64;63.82;100348.09;4482473;32;33891;-74
2023/08/13 03:14:27;;;;;;;7.30;4.75;;;;;;;19.79;63.25;100348.38;4480239;32;33447;-74
2023/08/13 03:16:55;;;;;;;7.60;4.40;;;;;;;19.64;63.38;100353.34;4482317;32;34566;-74
2023/08/13 03:19:22;;;;;;;7.00;4.53;;;;;;;19.37;64.25;100359.91;4475512;32;33089;-74
2023/08/13 03:21:50;;;;;;;7.87;4.78;;;;;;;19.58;63.63;100354.12;4482722;32;34096;-74
2023/08/13 03:24:18;;;;;;;6.32;4.18;;;;;;;19.26;64.55;100350.97;4476022;32;33546;-74
2023/08/13 03:26:45;;;;;;;7.00;4.85;;;;;;;19.39;64.29;100352.94;4482081;32;34194;-74
2023/08/13 03:29:14;;;;;;;6.32;4.70;;;;;;;19.38;64.30;100360.78;4482269;32;33318;-74
2023/08/13 03:31:42;;;;;;;6.90;4.93;;;;;;;19.23;64.93;100356.13;4481950;32;34542;-74
2023/08/13 03:34:10;;;;;;;6.95;4.68;;;;;;;18.98;65.79;100355.66;4478530;32;33439;-74
2023/08/13 03:36:38;;;;;;;8.63;4.83;;;;;;;19.15;65.42;100347.25;4479122;32;33542;-74
2023/08/13 03:39:05;;;;;;;6.53;4.83;;;;;;;19.05;65.65;100347.06;4482458;32;34554;-74
2023/08/13 03:41:33;;;;;;;6.28;4.80;;;;;;;19.42;64.44;100355.59;4481838;32;33843;-74
2023/08/13 03:44:00;;;;;;;7.25;4.75;;;;;;;19.27;64.74;100352.72;4480102;32;34128;-74
2023/08/13 03:46:28;;;;;;;6.97;4.93;;;;;;;19.25;64.69;100346.53;4483229;32;34570;-74
2023/08/13 03:48:57;;;;;;;7.35;4.90;;;;;;;19.03;65.40;100343.53;4478359;32;33536;-74
2023/08/13 03:51:25;;;;;;;6.90;4.83;;;;;;;19.21;65.08;100342.09;4477916;32;33831;-74
2023/08/13 03:53:52;;;;;;;7.10;4.93;;;;;;;19.21;65.15;100345.59;4483589;32;32990;-74
2023/08/13 03:56:20;;;;;;;7.30;4.70;;;;;;;19.16;65.42;100343.75;4466931;32;33894;-74
2023/08/13 03:58:48;;;;;;;6.12;4.90;;;;;;;19.22;65.21;100338.63;4479344;32;34568;-74
2023/08/13 04:01:16;;;;;;;7.40;4.97;;;;;;;19.11;65.60;100346.28;4479123;32;33561;-74
2023/08/13 04:03:44;;;;;;;6.50;4.40;;;;;;;19.20;65.24;100356.06;4466942;32;33451;-74
2023/08/13 04:06:12;;;;;;;7.12;4.78;;;;;;;18.90;66.33;100346.75;4483871;32;34418;-74
2023/08/13 04:08:40;;;;;;;6.18;4.55;;;;;;;18.85;66.66;100348.41;4483362;32;33871;-74
2023/08/13 04:11:07;;;;;;;8.02;4.90;;;;;;;19.18;65.64;100356.06;4480091;32;33957;-74
2023/08/13 04:13:35;;;;;;;6.27;4.73;;;;;;;19.07;65.84;100356.72;4476606;32;33358;-74
2023/08/13 04:16:02;;;;;;;7.35;5.00;;;;;;;19.13;65.67;100348.97;4484043;32;33870;-74
2023/08/13 04:18:31;;;;;;;7.35;5.28;;;;;;;18.97;65.97;100351.28;4483585;32;33838;-74
2023/08/13 04:20:59;;;;;;;7.15;4.62;;;;;;;18.80;66.85;100357.94;4481281;32;33363;-74
2023/08/13 04:23:27;;;;;;;7.35;4.30;;;;;;;18.90;66.75;100346.75;4482359;32;33270;-74
2023/08/13 04:25:55;;;;;;;7.60;4.53;;;;;;;18.80;67.02;100344.81;4482855;32;33667;-74
2023/08/13 04:28:25;;;;;;;6.55;4.72;;;;;;;19.03;66.29;100350.53;4483868;32;34287;-74
2023/08/13 04:30:52;;;;;;;6.32;4.57;;;;;;;18.99;66.52;100357.44;4481040;32;33820;-74
2023/08/13 04:33:20;;;;;;;6.53;4.28;;;;;;;19.02;66.63;100349.63;4465888;32;32638;-74
2023/08/13 04:35:53;;;;;;;6.87;4.30;;;;;;;19.21;66.19;100353.47;4484146;32;33568;-74
2023/08/13 04:38:21;;;;;;;5.87;4.15;;;;;;;19.12;66.51;100358.56;4483519;32;34379;-74
2023/08/13 04:40:49;;;;;;;5.85;4.40;;;;;;;18.95;67.25;100366.13;4456806;32;32273;-74
2023/08/13 04:43:17;;;;;;;5.85;4.10;;;;;;;19.10;66.79;100367.25;4480308;31;34034;-74
2023/08/13 04:45:46;;;;;;;7.22;4.28;;;;;;;19.15;66.75;100363.88;4482332;31;33387;-74
2023/08/13 04:48:18;;;;;;;6.35;4.50;;;;;;;19.24;66.51;100364.06;4480350;32;33643;-74
2023/08/13 04:50:48;;;;;;;7.18;4.50;;;;;;;19.13;67.04;100365.59;4475268;32;32916;-74
2023/08/13 04:53:15;;;;;;;7.25;4.00;;;;;;;19.31;66.48;100367.66;4476879;32;33267;-74
2023/08/13 04:55:43;;;;;;;6.87;4.60;;;;;;;19.34;66.68;100361.59;4480191;32;32982;-74
2023/08/13 04:58:11;;;;;;;6.95;4.43;;;;;;;19.39;66.63;100368.72;4481324;32;33788;-74
2023/08/13 05:00:38;;;;;;;6.53;4.35;;;;;;;19.48;66.52;100373.22;4473847;32;33826;-74
2023/08/13 05:03:06;;;;;;;6.90;4.35;;;;;;;19.52;66.43;100369.78;4476993;32;33354;-74
2023/08/13 05:05:33;;;;;;;7.35;4.22;;;;;;;19.76;65.43;100373.72;4481624;32;32659;-74
2023/08/13 05:08:01;;;;;;;6.12;4.45;;;;;;;19.52;66.67;100389.94;4470426;32;33184;-74
2023/08/13 05:10:29;;;;;;;5.62;4.30;;;;;;;19.63;66.43;100377.88;4479615;32;34434;-74
2023/08/13 05:12:57;;;;;;;6.95;4.07;;;;;;;19.55;66.89;100374.25;4481081;32;33837;-74
2023/08/13 05:15:25;;;;;;;9.60;5.70;;;;;;;19.56;67.16;100381.25;4473507;32;33938;-74
2023/08/13 05:17:53;;;;;;;14.13;6.97;;;;;;;19.59;67.34;100378.69;4478663;32;34266;-74
2023/08/13 05:20:20;;;;;;;12.10;7.32;;;;;;;19.79;66.80;100379.91;4456820;32;33752;-74
2023/08/13 05:22:48;;;;;;;11.82;6.85;;;;;;;19.95;66.17;100388.06;4483789;32;33304;-74
2023/08/13 05:25:15;;;;;;;9.43;5.57;;;;;;;19.70;67.30;100385.00;4480556;32;33767;-74
2023/08/13 05:27:43;;;;;;;6.87;4.60;;;;;;;19.69;67.45;100388.50;4483540;32;33935;-74
2023/08/13 05:30:11;;;;;;;6.43;4.40;;;;;;;19.83;67.15;100392.25;4480165;32;34633;-74
2023/08/13 05:32:39;;;;;;;6.30;4.00;;;;;;;19.83;67.20;100392.25;4456761;32;32839;-74
2023/08/13 05:35:08;;;;;;;5.87;4.25;;;;;;;19.88;67.50;100394.09;4483402;32;33869;-74
2023/08/13 05:37:35;;;;;;;5.85;4.20;;;;;;;19.90;67.75;100401.12;4483505;32;33759;-74
2023/08/13 05:40:04;;;;;;;5.90;4.57;;;;;;;20.00;67.62;100394.28;4477834;32;34544;-74
2023/08/13 05:42:32;;;;;;;6.82;4.37;;;;;;;20.00;67.72;100399.53;4482550;32;32999;-74
2023/08/13 05:44:59;;;;;;;6.28;4.18;;;;;;;20.09;67.45;100394.44;4483756;32;33791;-74
2023/08/13 05:47:27;;;;;;;6.47;4.28;;;;;;;20.09;67.62;100394.44;4483430;32;33719;-74
2023/08/13 05:49:55;;;;;;;6.87;3.85;;;;;;;20.18;67.18;100397.19;4479211;32;33723;-74
2023/08/13 05:52:24;;;;;;;5.18;3.97;;;;;;;20.28;67.02;100394.69;4468461;32;33135;-74
2023/08/13 05:54:51;;;;;;;5.65;4.10;;;;;;;20.41;66.61;100396.66;4483223;32;34012;-74
2023/08/13 05:57:19;;;;;;;7.20;4.30;;;;;;;20.48;66.79;100387.97;4481691;32;33900;-74
2023/08/13 05:59:47;;;;;;;6.70;4.20;;;;;;;20.50;67.23;100390.66;4473915;32;33348;-74
2023/08/13 06:02:14;;;;;;;6.30;4.20;;;;;;;20.74;66.21;100401.50;4481858;32;33007;-74
2023/08/13 06:04:42;;;;;;;6.07;3.97;;;;;;;20.78;66.16;100398.09;4475333;32;34378;-74
2023/08/13 06:07:10;;;;;;;5.65;3.97;;;;;;;20.78;66.48;100402.44;4473617;32;33853;-74
2023/08/13 06:09:37;;;;;;;7.10;4.18;;;;;;;20.90;66.37;100397.34;4474904;32;33861;-74
2023/08/13 06:12:06;;;;;;;6.12;3.85;;;;;;;21.04;66.33;100401.91;4478839;32;33261;-74
2023/08/13 06:14:33;;;;;;;5.75;4.10;;;;;;;21.02;66.67;100408.00;4473714;32;33613;-74
2023/08/13 06:17:01;;;;;;;5.85;3.80;;;;;;;21.23;66.37;100405.59;4475203;32;34500;-74
2023/08/13 06:19:42;;;;;;;6.22;3.92;;;;;;;21.23;66.84;100401.22;4473908;32;32913;-74
2023/08/13 06:22:11;;;;;;;6.78;3.70;;;;;;;21.33;67.26;100395.19;4474772;31;33446;-74
2023/08/13 06:24:39;;;;;;;5.47;3.70;;;;;;;21.59;66.37;100394.59;4475793;32;33508;-74
2023/08/13 06:27:06;;;;;;;6.28;3.90;;;;;;;21.80;65.52;100396.53;4481067;32;34301;-74
2023/08/13 06:29:34;;;;;;;5.97;3.65;;;;;;;21.86;64.61;100401.84;4482882;32;34252;-74
2023/08/13 06:32:01;;;;;;;5.83;3.77;;;;;;;22.02;64.57;100404.62;4479264;32;33915;-74
2023/08/13 06:34:29;;;;;;;6.65;4.32;;;;;;;22.15;64.57;100398.56;4478787;32;33922;-74
2023/08/13 06:36:57;;;;;;;7.35;4.10;;;;;;;22.23;64.19;100403.88;4473587;32;33753;-74
2023/08/13 06:39:25;;;;;;;7.82;4.28;;;;;;;22.15;64.91;100407.34;4479794;32;33678;-74
2023/08/13 06:41:53;;;;;;;6.78;4.20;;;;;;;22.53;64.42;100403.25;4474882;32;34210;-74
2023/08/13 06:44:25;;;;;;;6.40;4.00;;;;;;;22.63;64.25;100405.03;4482820;32;33587;-74
2023/08/13 06:46:52;;;;;;;5.75;4.00;;;;;;;22.82;63.73;100406.03;4479350;32;33627;-74
2023/08/13 06:49:20;;;;;;;5.60;3.70;;;;;;;22.97;63.44;100408.72;4481273;32;33862;-74
2023/08/13 06:51:48;;;;;;;5.55;3.85;;;;;;;23.24;61.95;100409.72;4476038;32;33472;-74
2023/08/13 06:54:15;;;;;;;5.22;3.72;;;;;;;23.19;62.02;100411.47;4473922;32;33730;-74
2023/08/13 06:56:43;;;;;;;5.60;3.78;;;;;;;23.06;62.41;100420.22;4477796;32;33738;-74
2023/08/13 06:59:10;;;;;;;5.90;3.60;;;;;;;23.39;62.16;100414.16;4479463;32;34377;-74
2023/08/13 07:01:38;;;;;;;7.05;3.87;;;;;;;23.53;61.03;100414.19;4473425;32;33986;-74
2023/08/13 07:04:06;;;;;;;6.18;3.67;;;;;;;23.57;60.96;100413.31;4473904;32;33743;-74
2023/08/13 07:06:34;;;;;;;5.70;3.87;;;;;;;23.75;60.32;100418.62;4474382;32;33406;-74
2023/08/13 07:09:03;;;;;;;6.35;3.75;;;;;;;24.07;58.20;100424.84;4478493;32;33954;-74
2023/08/13 07:11:36;;;;;;;5.65;3.67;;;;;;;24.23;57.68;100425.72;4472440;32;34291;-74
2023/08/13 07:14:03;;;;;;;8.43;3.97;;;;;;;24.27;57.63;100422.16;4479910;32;33508;-75
2023/08/13 07:16:31;;;;;;;7.53;3.78;;;;;;;24.32;57.21;100420.41;4477540;32;33559;-75
2023/08/13 07:18:59;;;;;;;6.93;3.53;;;;;;;24.60;56.64;100426.53;4469767;32;33535;-74
2023/08/13 07:21:26;;;;;;;8.45;3.33;;;;;;;24.84;55.39;100433.53;4473360;32;33206;-75
2023/08/13 07:23:54;;;;;;;10.23;3.72;;;;;;;25.02;54.35;100429.06;4471530;32;34575;-75
2023/08/13 07:26:21;;;;;;;8.77;3.50;;;;;;;25.25;53.25;100427.19;4474773;32;32563;-75
2023/08/13 07:28:49;;;;;;;5.95;2.90;;;;;;;25.52;51.73;100425.28;4474279;32;33487;-76
2023/08/13 07:31:19;;;;;;;4.50;3.03;;;;;;;25.85;49.31;100418.84;4477658;32;33831;-76
2023/08/13 07:33:47;;;;;;;5.40;3.10;;;;;;;26.43;47.59;100425.41;4474071;32;33655;-75
2023/08/13 07:36:14;;;;;;;4.95;3.25;;;;;;;26.19;48.90;100423.00;4480740;32;32907;-75
2023/08/13 07:38:42;;;;;;;6.65;3.05;;;;;;;26.59;48.06;100417.31;4481121;32;33902;-75
2023/08/13 07:41:09;;;;;;;5.47;2.90;;;;;;;26.63;48.10;100417.25;4476435;32;33167;-76
2023/08/13 07:43:37;;;;;;;4.65;3.10;;;;;;;26.81;48.08;100418.84;4473648;32;34495;-75
2023/08/13 07:46:05;;;;;;;6.80;3.22;;;;;;;26.98;47.04;100415.06;4478737;32;33530;-76
2023/08/13 07:48:32;;;;;;;6.15;3.28;;;;;;;27.49;45.61;100417.94;4470762;32;34598;-75
2023/08/13 07:51:00;;;;;;;5.40;3.00;;;;;;;27.67;45.45;100411.47;4475476;32;33052;-75
2023/08/13 07:53:28;;;;;;;4.47;2.90;;;;;;;28.07;44.48;100409.94;4477981;32;33276;-76
2023/08/13 07:55:56;;;;;;;5.03;3.00;;;;;;;28.51;43.26;100416.22;4477431;32;34537;-75
2023/08/13 07:58:23;;;;;;;4.50;2.90;;;;;;;28.52;43.18;100418.91;4475909;32;33847;-75
2023/08/13 08:00:51;;;;;;;4.30;2.83;;;;;;;28.89;42.00;100417.28;4482793;32;33547;-75
2023/08/13 08:03:19;;;;;;;5.03;3.20;;;;;;;28.91;41.45;100410.13;4464078;32;33572;-76
2023/08/13 08:05:48;;;;;;;5.45;2.90;;;;;;;29.10;41.92;100402.63;4462819;32;32296;-75
2023/08/13 08:08:15;;;;;;;4.43;2.85;;;;;;;29.44;41.17;100404.53;4477948;32;33757;-76
2023/08/13 08:10:43;;;;;;;6.18;2.55;;;;;;;29.35;38.62;100406.53;4477890;32;33155;-75
2023/08/13 08:13:10;;;;;;;4.70;2.80;;;;;;;29.52;39.19;100406.13;4481935;32;33595;-75
2023/08/13 08:15:38;;;;;;;4.93;2.78;;;;;;;30.16;38.05;100410.81;4481896;32;33472;-75
2023/08/13 08:18:06;;;;;;;4.80;2.70;;;;;;;30.08;38.74;100402.13;4475353;32;33636;-74
2023/08/13 08:20:33;;;;;;;5.07;2.70;;;;;;;30.37;39.04;100409.41;4480474;32;34203;-75
2023/08/13 08:23:01;;;;;;;8.68;2.87;;;;;;;30.77;36.50;100403.81;4459039;32;33794;-76
2023/08/13 08:25:28;;;;;;;4.00;2.40;;;;;;;30.70;35.80;100402.22;4477938;32;33583;-76
2023/08/13 08:27:56;;;;;;;4.50;2.55;;;;;;;31.02;36.26;100400.41;4462921;32;34030;-75
2023/08/13 08:30:24;;;;;;;4.53;2.22;;;;;;;31.31;36.32;100414.69;4479147;32;33245;-76
2023/08/13 08:32:52;;;;;;;5.97;2.50;;;;;;;31.64;34.58;100403.84;4480477;31;34410;-78
2023/08/13 08:35:19;;;;;;;4.60;2.50;;;;;;;31.83;33.91;100405.00;4476722;32;33684;-76
2023/08/13 08:37:47;;;;;;;6.10;2.58;;;;;;;32.03;33.47;100400.81;4478874;32;33867;-76
2023/08/13 08:40:15;;;;;;;5.18;2.80;;;;;;;32.29;33.09;100399.91;4483203;32;32696;-76
2023/08/13 08:42:43;;;;;;;4.60;2.53;;;;;;;32.37;33.28;100402.31;4478933;32;35968;-76
2023/08/13 08:45:11;;;;;;;14.05;4.28;;;;;;;32.60;33.26;100405.03;4481530;32;33890;-76
2023/08/13 08:47:42;;;;;;;15.15;3.83;;;;;;;32.72;31.82;100409.06;4469743;32;33353;-76
2023/08/13 08:50:11;;;;;;;7.00;2.90;;;;;;;32.83;32.22;100401.50;4463221;32;33333;-76
2023/08/13 08:52:39;;;;;;;6.35;2.95;;;;;;;33.05;31.80;100396.19;4476939;31;33737;-76
2023/08/13 08:55:09;;;;;;;6.25;2.62;;;;;;;33.43;31.91;100399.19;4460168;32;33609;-76
2023/08/13 08:57:37;;;;;;;5.07;2.57;;;;;;;33.63;31.04;100397.53;4480252;32;33457;-76
2023/08/13 09:00:05;;;;;;;5.18;2.45;;;;;;;33.77;30.56;100384.41;4483663;32;33953;-76
2023/08/13 09:02:33;;;;;;;4.35;2.22;;;;;;;33.77;30.34;100384.41;4483245;32;33841;-76
2023/08/13 09:05:01;;;;;;;5.28;2.33;;;;;;;33.88;30.20;100381.25;4465665;31;33509;-76
2023/08/13 09:07:31;;;;;;;5.10;2.37;;;;;;;34.08;30.39;100383.09;4449377;32;32002;-76
2023/08/13 09:10:03;;;;;;;5.28;2.40;;;;;;;34.40;28.34;100378.12;4468751;32;32624;-76
2023/08/13 09:12:38;;;;;;;5.00;2.45;;;;;;;34.58;28.96;100382.69;4471939;32;34031;-76
2023/08/13 09:15:08;;;;;;;3.60;2.40;;;;;;;34.72;28.67;100378.50;4479634;32;34121;-76
2023/08/13 09:17:36;;;;;;;5.18;2.53;;;;;;;34.97;27.03;100376.41;4480675;32;33796;-76
2023/08/13 09:20:15;;;;;;;6.07;2.77;;;;;;;34.99;28.00;100377.19;4477620;32;34141;-76
2023/08/13 09:22:52;;;;;;;5.35;3.10;;;;;;;35.06;28.54;100367.03;4483477;32;31974;-76
2023/08/13 09:25:21;;;;;;;5.45;2.65;;;;;;;35.26;28.72;100371.47;4451152;32;33619;-76
2023/08/13 09:27:49;;;;;;;4.97;2.70;;;;;;;35.39;28.34;100375.31;4479090;32;34487;-76
2023/08/13 09:30:27;;;;;;;7.37;2.80;;;;;;;35.50;28.55;100371.19;4480817;32;33191;-76
2023/08/13 09:32:59;;;;;;;4.60;2.70;;;;;;;35.66;27.44;100371.28;4479931;32;33363;-76
2023/08/13 09:35:28;;;;;;;4.72;2.80;;;;;;;35.45;27.76;100363.38;4479437;32;33320;-76
2023/08/13 09:37:55;;;;;;;5.37;2.80;;;;;;;35.55;27.13;100369.16;4479753;31;34107;-76
2023/08/13 09:40:23;;;;;;;5.43;2.95;;;;;;;35.61;27.81;100368.84;4475122;31;34189;-76
2023/08/13 09:42:52;;;;;;;5.05;2.80;;;;;;;35.78;27.03;100360.81;4482315;32;35138;-76
2023/08/13 09:45:22;;;;;;;5.20;3.00;;;;;;;35.66;28.21;100361.41;4478948;31;33677;-76
2023/08/13 09:47:51;;;;;;;5.03;2.70;;;;;;;35.97;28.20;100359.88;4465623;32;34277;-76
2023/08/13 09:50:18;;;;;;;5.00;3.00;;;;;;;36.04;26.64;100361.28;4479091;32;33181;-76
2023/08/13 09:52:47;;;;;;;5.28;2.90;;;;;;;35.55;26.88;100363.78;4474181;32;33715;-75
2023/08/13 09:55:16;;;;;;;4.40;3.10;;;;;;;35.75;27.13;100358.25;4465785;32;33627;-76
2023/08/13 09:57:44;;;;;;;5.53;3.10;;;;;;;35.62;26.65;100358.00;4462373;32;33658;-76
2023/08/13 10:00:13;;;;;;;4.57;3.10;;;;;;;35.47;26.48;100357.91;4467174;32;33152;-76
2023/08/13 10:02:41;;;;;;;4.47;2.70;;;;;;;35.25;27.87;100356.25;4460946;32;34336;-76
2023/08/13 10:05:09;;;;;;;4.60;2.83;;;;;;;35.13;26.51;100356.81;4483028;32;34420;-76
2023/08/13 10:07:36;;;;;;;4.12;2.58;;;;;;;35.31;27.10;100358.66;4479629;32;33627;-76
2023/08/13 10:10:04;;;;;;;4.85;2.70;;;;;;;35.40;26.98;100354.63;4464376;32;32993;-77
2023/08/13 10:12:36;;;;;;;4.30;2.83;;;;;;;35.41;26.54;100351.00;4483104;32;32654;-76
2023/08/13 10:15:04;;;;;;;4.20;2.70;;;;;;;34.99;26.86;100355.66;4483268;32;34487;-76
2023/08/13 10:17:32;;;;;;;6.10;2.70;;;;;;;35.26;26.96;100351.75;4461279;32;34221;-77
2023/08/13 10:19:59;;;;;;;5.35;2.67;;;;;;;35.28;26.63;100350.72;4479811;32;33061;-77
2023/08/13 10:22:32;;;;;;;4.93;2.45;;;;;;;35.54;27.20;100354.78;4479502;32;33801;-76
2023/08/13 10:25:00;;;;;;;3.72;2.58;;;;;;;35.66;25.90;100344.34;4476338;32;34099;-76
2023/08/13 10:27:28;;;;;;;4.80;2.50;;;;;;;35.63;25.89;100350.78;4483418;32;34238;-76
2023/08/13 10:30:14;;;;;;;3.83;2.72;;;;;;;35.67;26.83;100349.69;4478440;32;34109;-76
2023/08/13 10:32:50;;;;;;;4.30;2.60;;;;;;;35.91;27.39;100354.78;4482432;32;33126;-76
2023/08/13 10:35:22;;;;;;;4.60;2.50;;;;;;;35.99;26.31;100350.75;4482768;32;33100;-76
2023/08/13 10:37:56;;;;;;;4.57;2.47;;;;;;;35.95;26.41;100351.84;4478049;32;33380;-77
2023/08/13 10:40:23;;;;;;;5.43;2.70;;;;;;;36.05;25.18;100346.84;4456630;32;32821;-77
2023/08/13 10:42:55;;;;;;;3.90;2.40;;;;;;;36.11;24.83;100340.25;4475250;32;33715;-76
2023/08/13 10:45:36;;;;;;;4.62;2.50;;;;;;;36.01;27.03;100345.28;4478829;32;33039;-77
2023/08/13 10:48:05;;;;;;;4.47;2.50;;;;;;;36.18;26.20;100342.59;4476477;31;33197;-76
2023/08/13 10:50:39;;;;;;;4.25;2.60;;;;;;;36.14;26.00;100335.59;4477651;32;33058;-76
2023/08/13 10:53:20;;;;;;;4.15;2.50;;;;;;;35.85;25.54;100331.69;4480329;32;33255;-77
2023/08/13 10:55:54;;;;;;;4.85;2.40;;;;;;;35.78;26.10;100333.00;4472925;32;34625;-77
2023/08/13 10:58:34;;;;;;;4.40;2.53;;;;;;;35.90;25.68;100331.47;4481357;32;33349;-77
2023/08/13 11:01:16;;;;;;;5.90;2.70;;;;;;;35.89;25.83;100321.63;4481136;32;32463;-76
2023/08/13 11:03:45;;;;;;;5.50;2.45;;;;;;;35.95;25.43;100324.91;4482801;32;33226;-76
2023/08/13 11:06:17;;;;;;;7.00;2.60;;;;;;;35.86;26.07;100319.13;4482793;32;33846;-76
2023/08/13 11:08:48;;;;;;;6.12;2.80;;;;;;;35.92;26.20;100319.66;4478200;32;33123;-76
2023/08/13 11:11:16;;;;;;;4.47;2.40;;;;;;;35.76;25.15;100324.13;4476492;32;33042;-76
2023/08/13 11:13:45;;;;;;;6.40;2.50;;;;;;;36.00;26.20;100324.63;4479353;32;33599;-76
2023/08/13 11:16:13;;;;;;;5.60;2.67;;;;;;;35.89;25.69;100322.53;4482649;32;33404;-76
2023/08/13 11:18:41;;;;;;;5.00;2.50;;;;;;;35.42;25.64;100315.88;4481668;32;34310;-77
2023/08/13 11:21:08;;;;;;;5.35;2.67;;;;;;;35.70;27.25;100319.00;4479229;32;33615;-76
2023/08/13 11:23:36;;;;;;;4.62;2.53;;;;;;;35.92;26.69;100322.34;4467784;32;33821;-76
2023/08/13 11:26:05;;;;;;;5.28;2.50;;;;;;;35.82;25.90;100316.56;4473168;32;35240;-77
2023/08/13 11:28:33;;;;;;;5.55;2.37;;;;;;;36.10;25.92;100317.78;4465949;32;33047;-77
2023/08/13 11:31:01;;;;;;;3.65;2.30;;;;;;;36.03;24.33;100316.41;4478607;32;32733;-77